createdAt,value
2023-04-20T00:00:11.334Z,2.10
2023-04-20T00:02:42.074Z,2.65
2023-04-20T00:05:11.895Z,2.10
2023-04-20T00:07:41.507Z,2.10
2023-04-20T00:10:09.386Z,2.00
2023-04-20T00:12:36.736Z,2.17
2023-04-20T00:15:04.723Z,2.10
2023-04-20T00:17:32.139Z,2.47
2023-04-20T00:19:59.274Z,2.28
2023-04-20T00:22:28.244Z,2.00
2023-04-20T00:24:55.277Z,2.58
2023-04-20T00:27:22.482Z,2.58
2023-04-20T00:29:49.557Z,2.20
2023-04-20T00:32:16.730Z,2.33
2023-04-20T00:34:43.958Z,2.40
2023-04-20T00:37:11.640Z,2.42
2023-04-20T00:39:38.634Z,2.00
2023-04-20T00:42:08.283Z,2.40
2023-04-20T00:44:35.988Z,2.35
2023-04-20T00:47:03.100Z,2.05
2023-04-20T00:49:31.992Z,2.35
2023-04-20T00:52:00.170Z,2.50
2023-04-20T00:54:30.000Z,2.00
2023-04-20T00:56:59.631Z,2.45
2023-04-20T00:59:27.075Z,2.45
2023-04-20T01:01:54.406Z,2.40
2023-04-20T01:04:21.955Z,2.40
2023-04-20T01:06:49.126Z,2.35
2023-04-20T01:09:16.522Z,2.58
2023-04-20T01:11:45.025Z,2.35
2023-04-20T01:14:16.745Z,2.55
2023-04-20T01:16:44.979Z,2.40
2023-04-20T01:19:13.299Z,2.53
2023-04-20T01:21:40.845Z,2.40
2023-04-20T01:24:08.298Z,2.60
2023-04-20T01:26:35.501Z,2.50
2023-04-20T01:29:02.532Z,2.50
2023-04-20T01:31:29.719Z,2.55
2023-04-20T01:33:58.698Z,2.60
2023-04-20T01:36:25.777Z,2.15
2023-04-20T01:38:53.106Z,2.30
2023-04-20T01:41:21.458Z,2.78
2023-04-20T01:43:49.106Z,2.28
2023-04-20T01:46:16.259Z,2.50
2023-04-20T01:48:43.271Z,1.92
2023-04-20T01:51:10.248Z,2.72
2023-04-20T01:53:37.191Z,2.17
2023-04-20T01:56:04.580Z,2.83
2023-04-20T01:58:31.705Z,2.60
2023-04-20T02:01:01.500Z,2.42
2023-04-20T02:03:29.257Z,2.40
2023-04-20T02:05:56.555Z,2.58
2023-04-20T02:08:27.399Z,2.28
2023-04-20T02:10:54.461Z,2.50
2023-04-20T02:13:21.540Z,2.65
2023-04-20T02:15:48.592Z,2.60
2023-04-20T02:18:16.271Z,2.55
2023-04-20T02:20:45.517Z,2.53
2023-04-20T02:23:13.030Z,2.72
2023-04-20T02:25:40.031Z,2.88
2023-04-20T02:28:07.103Z,2.72
2023-04-20T02:30:34.166Z,2.58
2023-04-20T02:33:01.388Z,2.25
2023-04-20T02:35:28.461Z,2.97
2023-04-20T02:37:55.781Z,2.83
2023-04-20T02:40:22.856Z,2.55
2023-04-20T02:42:50.256Z,2.70
2023-04-20T02:45:17.585Z,2.60
2023-04-20T02:47:47.245Z,2.70
2023-04-20T02:50:15.298Z,2.90
2023-04-20T02:53:02.595Z,2.80
2023-04-20T02:55:32.842Z,2.80
2023-04-20T02:58:04.721Z,2.55
2023-04-20T03:00:52.119Z,3.20
2023-04-20T03:03:21.317Z,2.80
2023-04-20T03:05:49.278Z,2.90
2023-04-20T03:08:16.960Z,2.78
2023-04-20T03:10:46.214Z,2.80
2023-04-20T03:13:20.296Z,2.90
2023-04-20T03:16:00.660Z,2.78
2023-04-20T03:18:35.342Z,2.90
2023-04-20T03:21:02.438Z,2.83
2023-04-20T03:23:31.592Z,2.97
2023-04-20T03:26:01.635Z,2.88
2023-04-20T03:28:57.131Z,2.70
2023-04-20T03:31:26.410Z,3.08
2023-04-20T03:33:55.922Z,2.65
2023-04-20T03:36:23.218Z,2.58
2023-04-20T03:38:50.242Z,3.20
2023-04-20T03:41:17.265Z,2.90
2023-04-20T03:43:44.334Z,2.88
2023-04-20T03:46:11.489Z,2.75
2023-04-20T03:48:38.653Z,3.50
2023-04-20T03:51:06.112Z,2.80
2023-04-20T03:53:33.134Z,3.00
2023-04-20T03:56:00.974Z,3.17
2023-04-20T03:58:28.460Z,3.00
2023-04-20T04:01:07.834Z,3.17
2023-04-20T04:03:37.499Z,3.00
2023-04-20T04:06:04.964Z,3.38
2023-04-20T04:08:33.602Z,3.08
2023-04-20T04:11:01.076Z,3.05
2023-04-20T04:13:47.750Z,3.58
2023-04-20T04:16:34.888Z,3.22
2023-04-20T04:19:21.914Z,2.92
2023-04-20T04:22:08.643Z,3.50
2023-04-20T04:25:01.454Z,3.00
2023-04-20T04:27:49.514Z,3.08
2023-04-20T04:30:39.079Z,3.35
2023-04-20T04:33:27.779Z,3.03
2023-04-20T04:36:15.384Z,3.45
2023-04-20T04:39:02.333Z,3.33
2023-04-20T04:41:49.727Z,3.30
2023-04-20T04:44:45.045Z,3.20
2023-04-20T04:47:36.926Z,3.58
2023-04-20T04:50:23.598Z,3.35
2023-04-20T04:53:11.576Z,3.58
2023-04-20T04:55:58.288Z,3.22
2023-04-20T04:58:47.279Z,3.60
2023-04-20T05:01:36.083Z,3.55
2023-04-20T05:04:23.177Z,3.20
2023-04-20T05:07:10.493Z,3.72
2023-04-20T05:09:57.151Z,3.53
2023-04-20T05:12:44.574Z,3.30
2023-04-20T05:15:31.392Z,3.42
2023-04-20T05:18:18.123Z,4.05
2023-04-20T05:20:45.134Z,3.65
2023-04-20T05:23:12.361Z,3.60
2023-04-20T05:25:39.465Z,3.50
2023-04-20T05:28:08.678Z,3.45
2023-04-20T05:30:46.432Z,3.33
2023-04-20T05:33:13.393Z,3.40
2023-04-20T05:35:41.092Z,3.85
2023-04-20T05:38:08.136Z,3.03
2023-04-20T05:40:35.445Z,3.47
2023-04-20T05:43:02.691Z,3.30
2023-04-20T05:45:29.834Z,3.30
2023-04-20T05:47:57.712Z,3.15
2023-04-20T05:50:26.646Z,3.15
2023-04-20T05:52:54.227Z,3.50
2023-04-20T05:55:22.792Z,3.25
2023-04-20T05:57:52.253Z,3.38
2023-04-20T06:00:21.177Z,2.92
2023-04-20T06:02:49.111Z,3.30
2023-04-20T06:05:16.425Z,3.70
2023-04-20T06:07:43.470Z,3.45
2023-04-20T06:10:11.017Z,3.22
2023-04-20T06:12:38.173Z,3.90
2023-04-20T06:15:10.751Z,3.35
2023-04-20T06:17:40.667Z,3.75
2023-04-20T06:20:10.559Z,3.40
2023-04-20T06:22:47.090Z,3.50
2023-04-20T06:25:15.712Z,3.58
2023-04-20T06:27:42.993Z,3.42
2023-04-20T06:30:11.356Z,3.50
2023-04-20T06:32:38.535Z,3.28
2023-04-20T06:35:07.193Z,4.00
2023-04-20T06:37:36.192Z,3.33
2023-04-20T06:40:10.633Z,3.50
2023-04-20T06:45:07.131Z,3.67
2023-04-20T06:47:34.800Z,3.88
2023-04-20T06:50:10.320Z,3.33
2023-04-20T06:52:38.641Z,3.38
2023-04-20T06:55:06.402Z,3.40
2023-04-20T06:57:33.431Z,3.25
2023-04-20T07:00:00.508Z,3.78
2023-04-20T07:02:27.985Z,3.30
2023-04-20T07:05:01.891Z,2.70
2023-04-20T07:07:29.014Z,2.47
2023-04-20T07:09:56.027Z,3.03
2023-04-20T07:12:22.994Z,3.45
2023-04-20T07:14:50.019Z,3.08
2023-04-20T07:17:16.985Z,2.92
2023-04-20T07:19:43.970Z,3.20
2023-04-20T07:22:10.927Z,2.80
2023-04-20T07:24:37.984Z,3.25
2023-04-20T07:27:05.713Z,3.28
2023-04-20T07:29:34.008Z,3.45
2023-04-20T07:32:01.223Z,3.40
2023-04-20T07:34:28.277Z,3.22
2023-04-20T07:36:55.261Z,3.25
2023-04-20T07:39:22.278Z,2.90
2023-04-20T07:41:49.228Z,2.85
2023-04-20T07:44:16.184Z,2.90
2023-04-20T07:46:43.157Z,2.97
2023-04-20T07:49:10.155Z,2.78
2023-04-20T07:51:37.104Z,2.88
2023-04-20T07:54:04.255Z,3.00
2023-04-20T07:56:32.142Z,2.67
2023-04-20T07:58:59.185Z,2.60
2023-04-20T08:01:26.413Z,2.90
2023-04-20T08:03:55.742Z,2.90
2023-04-20T08:06:23.123Z,2.70
2023-04-20T08:08:50.076Z,3.00
2023-04-20T08:11:17.075Z,3.10
2023-04-20T08:13:44.123Z,2.38
2023-04-20T08:16:11.243Z,2.65
2023-04-20T08:18:38.335Z,3.90
2023-04-20T08:21:05.402Z,2.60
2023-04-20T08:23:32.393Z,2.38
2023-04-20T08:25:59.528Z,2.40
2023-04-20T08:28:33.385Z,2.90
2023-04-20T08:31:01.840Z,3.10
2023-04-20T08:33:28.873Z,2.70
2023-04-20T08:35:56.057Z,2.40
2023-04-20T08:38:33.456Z,2.85
2023-04-20T08:41:02.138Z,2.58
2023-04-20T08:43:29.648Z,2.65
2023-04-20T08:46:04.643Z,3.00
2023-04-20T08:48:37.086Z,2.88
2023-04-20T08:51:06.129Z,2.70
2023-04-20T08:53:33.669Z,2.72
2023-04-20T08:56:00.847Z,2.78
2023-04-20T08:58:32.869Z,3.00
2023-04-20T09:01:02.855Z,2.80
2023-04-20T09:03:36.172Z,3.08
2023-04-20T09:06:05.878Z,3.17
2023-04-20T09:08:42.136Z,3.30
2023-04-20T09:11:26.999Z,2.92
2023-04-20T09:14:06.698Z,3.30
2023-04-20T09:16:37.595Z,3.03
2023-04-20T09:19:04.867Z,2.78
2023-04-20T09:21:32.662Z,3.10
2023-04-20T09:24:03.414Z,3.30
2023-04-20T09:26:35.714Z,3.55
2023-04-20T09:29:04.501Z,3.20
2023-04-20T09:31:31.455Z,3.28
2023-04-20T09:34:07.655Z,3.50
2023-04-20T09:36:42.124Z,3.13
2023-04-20T09:41:44.366Z,3.10
2023-04-20T09:46:52.854Z,2.72
2023-04-20T09:49:21.363Z,3.08
2023-04-20T09:51:49.503Z,3.33
2023-04-20T09:54:16.830Z,3.47
2023-04-20T09:56:45.480Z,3.40
2023-04-20T09:59:13.459Z,3.15
2023-04-20T10:01:40.921Z,3.30
2023-04-20T10:04:11.073Z,3.47
2023-04-20T10:06:38.948Z,3.08
2023-04-20T10:09:08.790Z,3.00
2023-04-20T10:11:52.455Z,3.50
2023-04-20T10:14:23.825Z,3.65
2023-04-20T10:17:05.247Z,3.22
2023-04-20T10:19:44.144Z,3.42
2023-04-20T10:22:25.241Z,3.70
2023-04-20T10:24:52.230Z,3.55
2023-04-20T10:27:22.034Z,3.63
2023-04-20T10:29:49.380Z,3.30
2023-04-20T10:32:27.455Z,3.28
2023-04-20T10:35:10.786Z,3.42
2023-04-20T10:37:50.780Z,2.97
2023-04-20T10:40:28.938Z,3.05
2023-04-20T10:42:55.976Z,3.20
2023-04-20T10:45:35.708Z,3.40
2023-04-20T10:48:10.374Z,3.17
2023-04-20T10:50:37.681Z,3.10
2023-04-20T10:53:05.417Z,3.22
2023-04-20T10:55:32.558Z,3.55
2023-04-20T10:57:59.770Z,3.80
2023-04-20T11:00:29.595Z,3.70
2023-04-20T11:02:57.549Z,3.70
2023-04-20T11:05:27.677Z,4.18
2023-04-20T11:07:57.819Z,4.15
2023-04-20T11:10:42.227Z,3.70
2023-04-20T11:13:30.739Z,3.85
2023-04-20T11:15:57.806Z,3.90
2023-04-20T11:18:24.900Z,4.00
2023-04-20T11:20:56.176Z,4.10
2023-04-20T11:23:27.445Z,3.85
2023-04-20T11:25:57.007Z,4.28
2023-04-20T11:28:25.901Z,4.28
2023-04-20T11:30:52.874Z,4.47
2023-04-20T11:33:31.398Z,4.05
2023-04-20T11:35:59.865Z,4.30
2023-04-20T11:38:33.256Z,4.40
2023-04-20T11:41:04.728Z,4.20
2023-04-20T11:43:32.554Z,5.57
2023-04-20T11:46:01.090Z,5.85
2023-04-20T11:48:31.470Z,5.63
2023-04-20T11:50:58.851Z,5.53
2023-04-20T11:53:25.942Z,5.32
2023-04-20T11:55:52.892Z,5.53
2023-04-20T11:58:19.915Z,4.85
2023-04-20T12:00:46.847Z,5.45
2023-04-20T12:03:14.036Z,5.40
2023-04-20T12:05:43.278Z,5.07
2023-04-20T12:08:10.369Z,4.65
2023-04-20T12:10:37.392Z,4.95
2023-04-20T12:13:04.373Z,4.80
2023-04-20T12:15:31.984Z,4.85
2023-04-20T12:17:59.162Z,4.50
2023-04-20T12:20:26.412Z,5.20
2023-04-20T12:22:53.393Z,4.32
2023-04-20T12:25:20.580Z,4.53
2023-04-20T12:27:48.816Z,4.32
2023-04-20T12:30:17.023Z,4.75
2023-04-20T12:32:44.129Z,4.80
2023-04-20T12:35:11.368Z,4.35
2023-04-20T12:37:38.408Z,4.90
2023-04-20T12:40:07.413Z,4.43
2023-04-20T12:42:34.446Z,4.35
2023-04-20T12:45:01.858Z,4.32
2023-04-20T12:47:28.898Z,3.90
2023-04-20T12:49:56.252Z,4.03
2023-04-20T12:52:23.391Z,3.58
2023-04-20T12:54:50.541Z,3.35
2023-04-20T12:57:17.624Z,3.28
2023-04-20T12:59:44.627Z,3.33
2023-04-20T13:02:11.997Z,3.88
2023-04-20T13:04:39.220Z,3.88
2023-04-20T13:07:07.085Z,3.95
2023-04-20T13:09:34.477Z,3.88
2023-04-20T13:12:01.702Z,4.03
2023-04-20T13:14:28.736Z,3.65
2023-04-20T13:16:56.121Z,3.88
2023-04-20T13:19:23.205Z,3.30
2023-04-20T13:21:50.222Z,3.40
2023-04-20T13:24:17.445Z,3.13
2023-04-20T13:26:44.721Z,3.65
2023-04-20T13:29:11.848Z,3.53
2023-04-20T13:31:40.612Z,3.55
2023-04-20T13:34:07.801Z,2.95
2023-04-20T13:36:34.859Z,3.28
2023-04-20T13:39:02.135Z,3.60
2023-04-20T13:41:29.145Z,3.50
2023-04-20T13:44:00.083Z,3.80
2023-04-20T13:46:27.826Z,3.80
2023-04-20T13:48:54.972Z,3.63
2023-04-20T13:51:21.959Z,3.45
2023-04-20T13:53:49.000Z,3.78
2023-04-20T13:56:16.752Z,4.00
2023-04-20T13:58:44.185Z,3.72
2023-04-20T14:01:13.114Z,4.00
2023-04-20T14:03:42.135Z,3.83
2023-04-20T14:06:09.229Z,3.67
2023-04-20T14:08:36.301Z,3.63
2023-04-20T14:11:03.424Z,3.88
2023-04-20T14:13:30.435Z,3.90
2023-04-20T14:15:58.797Z,3.92
2023-04-20T14:18:25.794Z,4.00
2023-04-20T14:20:52.733Z,3.85
2023-04-20T14:23:19.718Z,3.55
2023-04-20T14:25:46.833Z,3.63
2023-04-20T14:28:16.710Z,3.60
2023-04-20T14:30:47.190Z,4.18
2023-04-20T14:33:14.145Z,3.80
2023-04-20T14:35:41.256Z,3.72
2023-04-20T14:38:08.891Z,3.78
2023-04-20T14:40:35.969Z,3.65
2023-04-20T14:43:03.071Z,3.38
2023-04-20T14:45:30.197Z,4.00
2023-04-20T14:47:57.511Z,4.05
2023-04-20T14:50:29.837Z,4.00
2023-04-20T14:52:56.878Z,4.35
2023-04-20T14:55:25.989Z,5.00
2023-04-20T14:57:57.667Z,4.65
2023-04-20T15:00:28.345Z,4.28
2023-04-20T15:02:56.920Z,4.20
2023-04-20T15:05:26.825Z,4.72
2023-04-20T15:07:54.075Z,5.05
2023-04-20T15:10:21.598Z,4.55
2023-04-20T15:12:48.641Z,4.43
2023-04-20T15:15:17.325Z,4.32
2023-04-20T15:17:46.808Z,4.20
2023-04-20T15:20:17.563Z,4.57
2023-04-20T15:22:44.586Z,4.85
2023-04-20T15:25:12.156Z,4.43
2023-04-20T15:27:39.247Z,4.40
2023-04-20T15:30:07.874Z,4.50
2023-04-20T15:32:34.860Z,4.30
2023-04-20T15:35:02.557Z,4.78
2023-04-20T15:37:29.700Z,4.43
2023-04-20T15:39:56.806Z,4.50
2023-04-20T15:42:23.839Z,4.07
2023-04-20T15:44:50.788Z,4.30
2023-04-20T15:47:17.787Z,4.43
2023-04-20T15:49:44.897Z,4.80
2023-04-20T15:52:12.006Z,4.40
2023-04-20T15:54:39.019Z,4.20
2023-04-20T15:57:06.067Z,4.40
2023-04-20T15:59:33.113Z,3.92
2023-04-20T16:02:00.135Z,4.90
2023-04-20T16:04:27.291Z,4.93
2023-04-20T16:06:55.367Z,5.13
2023-04-20T16:09:23.731Z,5.07
2023-04-20T16:11:51.136Z,5.20
2023-04-20T16:14:18.753Z,4.65
2023-04-20T16:16:45.954Z,4.30
2023-04-20T16:19:16.110Z,4.15
2023-04-20T16:21:43.182Z,4.07
2023-04-20T16:24:10.196Z,3.70
2023-04-20T16:26:38.998Z,4.20
2023-04-20T16:29:07.165Z,3.85
2023-04-20T16:31:36.661Z,4.25
2023-04-20T16:34:04.424Z,4.20
2023-04-20T16:36:32.112Z,4.38
2023-04-20T16:39:01.782Z,3.90
2023-04-20T16:41:28.740Z,4.03
2023-04-20T16:43:56.111Z,4.03
2023-04-20T16:46:23.193Z,4.32
2023-04-20T16:48:50.931Z,4.20
2023-04-20T16:51:17.916Z,4.30
2023-04-20T16:53:45.366Z,3.53
2023-04-20T16:56:12.715Z,3.85
2023-04-20T16:58:39.711Z,3.75
2023-04-20T17:01:08.033Z,4.15
2023-04-20T17:03:35.283Z,3.78
2023-04-20T17:06:07.392Z,3.95
2023-04-20T17:08:34.696Z,3.88
2023-04-20T17:11:01.968Z,4.10
2023-04-20T17:13:29.139Z,3.83
2023-04-20T17:15:56.720Z,3.78
2023-04-20T17:18:24.247Z,3.55
2023-04-20T17:20:52.216Z,3.90
2023-04-20T17:23:19.668Z,3.50
2023-04-20T17:25:47.430Z,3.60
2023-04-20T17:28:14.926Z,3.80
2023-04-20T17:30:42.027Z,3.88
2023-04-20T17:33:12.237Z,3.78
2023-04-20T17:35:39.507Z,4.20
2023-04-20T17:38:06.856Z,5.70
2023-04-20T17:40:34.192Z,5.38
2023-04-20T17:43:02.324Z,9.32
2023-04-20T17:45:29.360Z,6.60
2023-04-20T17:47:56.481Z,6.32
2023-04-20T17:50:23.804Z,6.60
2023-04-20T17:52:51.620Z,6.63
2023-04-20T17:55:18.726Z,7.07
2023-04-20T17:57:45.706Z,7.50
2023-04-20T18:00:13.509Z,7.45
2023-04-20T18:02:41.076Z,8.00
2023-04-20T18:05:08.653Z,8.30
2023-04-20T18:07:35.840Z,8.45
2023-04-20T18:10:04.275Z,8.65
2023-04-20T18:12:31.297Z,8.65
2023-04-20T18:14:58.298Z,9.10
2023-04-20T18:17:25.750Z,9.52
2023-04-20T18:19:52.777Z,9.50
2023-04-20T18:22:19.814Z,8.35
2023-04-20T18:24:46.820Z,9.68
2023-04-20T18:27:13.884Z,8.70
2023-04-20T18:29:40.871Z,8.85
2023-04-20T18:32:08.104Z,8.73
2023-04-20T18:34:35.141Z,8.60
2023-04-20T18:37:02.167Z,7.95
2023-04-20T18:39:29.896Z,8.80
2023-04-20T18:41:56.871Z,8.40
2023-04-20T18:44:23.900Z,7.82
2023-04-20T18:46:51.014Z,6.70
2023-04-20T18:49:18.072Z,6.47
2023-04-20T18:51:45.118Z,6.28
2023-04-20T18:54:12.078Z,6.10
2023-04-20T18:56:39.598Z,5.40
2023-04-20T18:59:08.455Z,5.60
2023-04-20T19:01:40.339Z,5.25
2023-04-20T19:04:08.866Z,4.85
2023-04-20T19:06:36.179Z,5.35
2023-04-20T19:09:08.214Z,5.05
2023-04-20T19:11:35.748Z,4.68
2023-04-20T19:14:02.705Z,4.40
2023-04-20T19:16:31.680Z,3.85
2023-04-20T19:18:59.581Z,4.40
2023-04-20T19:21:27.083Z,3.90
2023-04-20T19:23:54.078Z,3.80
2023-04-20T19:26:21.318Z,4.10
2023-04-20T19:28:48.405Z,3.90
2023-04-20T19:31:16.019Z,4.05
2023-04-20T19:33:43.333Z,4.10
2023-04-20T19:36:10.330Z,4.10
2023-04-20T19:38:38.674Z,4.53
2023-04-20T19:41:06.302Z,4.40
2023-04-20T19:43:33.561Z,4.45
2023-04-20T19:46:00.707Z,4.88
2023-04-20T19:48:31.021Z,4.57
2023-04-20T19:50:59.167Z,5.28
2023-04-20T19:53:28.142Z,4.90
2023-04-20T19:55:55.319Z,4.93
2023-04-20T19:58:24.377Z,5.20
2023-04-20T20:00:51.360Z,5.60
2023-04-20T20:03:18.491Z,5.63
2023-04-20T20:05:45.585Z,5.93
2023-04-20T20:08:13.483Z,6.28
2023-04-20T20:10:40.521Z,5.72
2023-04-20T20:13:07.477Z,6.95
2023-04-20T20:15:34.557Z,6.32
2023-04-20T20:18:01.749Z,5.90
2023-04-20T20:20:32.304Z,6.88
2023-04-20T20:23:00.064Z,6.38
2023-04-20T20:25:27.085Z,6.72
2023-04-20T20:27:54.545Z,6.57
2023-04-20T20:30:22.257Z,7.07
2023-04-20T20:32:49.288Z,6.85
2023-04-20T20:35:16.412Z,7.03
2023-04-20T20:37:45.347Z,7.22
2023-04-20T20:40:15.129Z,7.63
2023-04-20T20:42:44.973Z,7.32
2023-04-20T20:45:13.006Z,7.63
2023-04-20T20:47:44.747Z,7.78
2023-04-20T20:50:14.667Z,7.93
2023-04-20T20:52:42.034Z,8.40
2023-04-20T20:55:10.374Z,7.82
2023-04-20T20:57:37.637Z,8.77
2023-04-20T21:00:08.383Z,8.30
2023-04-20T21:02:36.890Z,8.23
2023-04-20T21:05:05.754Z,8.73
2023-04-20T21:07:33.084Z,8.43
2023-04-20T21:10:00.201Z,9.23
2023-04-20T21:12:27.169Z,9.18
2023-04-20T21:14:54.261Z,8.93
2023-04-20T21:17:21.442Z,8.90
2023-04-20T21:19:48.430Z,9.25
2023-04-20T21:22:15.470Z,9.77
2023-04-20T21:24:42.533Z,9.27
2023-04-20T21:27:09.915Z,9.70
2023-04-20T21:29:36.932Z,9.48
2023-04-20T21:32:04.395Z,9.80
2023-04-20T21:34:31.449Z,10.30
2023-04-20T21:37:03.950Z,10.80
2023-04-20T21:39:32.473Z,10.82
2023-04-20T21:41:59.940Z,11.18
2023-04-20T21:44:27.824Z,10.57
2023-04-20T21:46:54.958Z,11.10
2023-04-20T21:49:21.948Z,12.05
2023-04-20T21:51:49.275Z,12.18
2023-04-20T21:54:16.286Z,12.23
2023-04-20T21:56:43.313Z,13.35
2023-04-20T21:59:10.439Z,13.98
2023-04-20T22:01:37.621Z,14.23
2023-04-20T22:04:05.140Z,13.77
2023-04-20T22:06:32.691Z,14.00
2023-04-20T22:08:59.742Z,14.60
2023-04-20T22:11:26.821Z,15.70
2023-04-20T22:13:53.967Z,16.33
2023-04-20T22:16:23.947Z,15.88
2023-04-20T22:18:51.351Z,17.02
2023-04-20T22:21:18.301Z,17.55
2023-04-20T22:23:45.421Z,17.25
2023-04-20T22:26:12.410Z,18.25
2023-04-20T22:28:39.347Z,17.90
2023-04-20T22:31:06.442Z,18.50
2023-04-20T22:33:33.530Z,19.95
2023-04-20T22:36:00.707Z,19.80
2023-04-20T22:38:27.700Z,18.52
2023-04-20T22:40:54.782Z,20.13
2023-04-20T22:43:21.862Z,20.13
2023-04-20T22:45:48.964Z,20.30
2023-04-20T22:48:16.085Z,20.35
2023-04-20T22:50:43.537Z,20.00
2023-04-20T22:53:10.603Z,21.27
2023-04-20T22:55:37.596Z,21.73
2023-04-20T22:58:04.575Z,22.33
2023-04-20T23:00:31.620Z,22.15
2023-04-20T23:02:59.128Z,22.67
2023-04-20T23:05:26.521Z,23.10
2023-04-20T23:07:53.947Z,22.63
2023-04-20T23:10:21.265Z,22.65
2023-04-20T23:12:49.562Z,22.15
2023-04-20T23:15:16.583Z,22.65
2023-04-20T23:17:43.728Z,24.38
2023-04-20T23:20:13.665Z,24.50
2023-04-20T23:22:41.001Z,22.77
2023-04-20T23:25:09.791Z,23.77
2023-04-20T23:27:36.987Z,23.58
2023-04-20T23:30:04.662Z,23.83
2023-04-20T23:32:31.682Z,22.60
2023-04-20T23:34:58.710Z,23.92
2023-04-20T23:37:25.654Z,24.30
2023-04-20T23:39:52.670Z,24.52
2023-04-20T23:42:19.638Z,25.50
2023-04-20T23:44:46.609Z,24.73
2023-04-20T23:47:15.473Z,25.35
2023-04-20T23:49:42.489Z,25.35
2023-04-20T23:52:09.548Z,25.00
2023-04-20T23:54:36.541Z,24.27
2023-04-20T23:57:03.607Z,26.02
2023-04-20T23:59:31.210Z,24.35
